Terminal Aerodrome Forecast
Issued by NWS

Home | Current Version | Previous Version | Text Only | Print | Product List | Glossary On
Versions: 1 2 3 4 5 6 7 8 9 10 11 12 13 14
177
FTUS42 KMLB 012320
TAFTIX
TAF
KTIX 012320Z 0200/0224 13010KT P6SM FEW035 SCT100 SCT250
     FM020200 13004KT P6SM SKC
     FM021400 18008KT P6SM FEW040 SCT250
     FM021800 15011KT P6SM SCT030 SCT250
      AMD NOT SKED 0201/0211=

USA.gov is the U.S. government's official web portal to all federal, state and local government web resources and services.